createdAt,value
2019-01-31T00:05:59.640Z,99532.31
2019-01-31T00:11:16.022Z,99533.09
2019-01-31T00:17:07.296Z,99539.98
2019-01-31T00:23:02.406Z,99537.96
2019-01-31T00:28:45.453Z,99541.36
2019-01-31T00:34:18.422Z,99540.44
2019-01-31T00:40:08.442Z,99528.55
2019-01-31T00:45:47.682Z,99531.67
2019-01-31T00:51:01.805Z,99534.18
2019-01-31T00:56:48.533Z,99541.66
2019-01-31T01:02:51.313Z,99535.45
2019-01-31T01:08:22.099Z,99544.95
2019-01-31T01:13:38.098Z,99551.21
2019-01-31T01:19:39.173Z,99550.82
2019-01-31T01:25:29.908Z,99543.28
2019-01-31T01:30:58.303Z,99553.52
2019-01-31T01:36:11.545Z,99558.64
2019-01-31T01:42:06.455Z,99573.47
2019-01-31T01:47:21.923Z,99561.12
2019-01-31T01:53:07.947Z,99557.28
2019-01-31T01:58:29.530Z,99556.72
2019-01-31T02:04:24.716Z,99551.31
2019-01-31T02:10:26.034Z,99558.05
2019-01-31T02:16:13.304Z,99557.60
2019-01-31T02:22:24.457Z,99549.53
2019-01-31T02:28:13.671Z,99555.59
2019-01-31T02:34:22.164Z,99553.72
2019-01-31T02:40:09.886Z,99545.64
2019-01-31T02:46:06.104Z,99546.28
2019-01-31T02:51:47.986Z,99542.64
2019-01-31T02:57:27.675Z,99540.83
2019-01-31T03:02:54.189Z,99549.98
2019-01-31T03:08:26.292Z,99542.45
2019-01-31T03:14:09.904Z,99550.08
2019-01-31T03:19:55.847Z,99551.66
2019-01-31T03:25:36.411Z,99552.73
2019-01-31T03:31:14.476Z,99550.27
2019-01-31T03:36:52.563Z,99549.14
2019-01-31T03:43:11.792Z,99551.64
2019-01-31T03:48:57.383Z,99564.36
2019-01-31T03:55:07.208Z,99559.18
2019-01-31T04:00:42.548Z,99566.22
2019-01-31T04:06:11.041Z,99565.33
2019-01-31T04:11:13.536Z,99559.42
2019-01-31T04:16:15.830Z,99572.03
2019-01-31T04:21:18.106Z,99564.59
2019-01-31T04:26:20.836Z,99560.55
2019-01-31T04:31:23.703Z,99562.40
2019-01-31T04:36:27.193Z,99563.80
2019-01-31T04:41:30.187Z,99563.44
2019-01-31T04:46:32.976Z,99568.66
2019-01-31T04:51:36.539Z,99572.83
2019-01-31T04:56:39.087Z,99571.01
2019-01-31T05:01:41.369Z,99573.27
2019-01-31T05:06:43.629Z,99582.89
2019-01-31T05:11:46.552Z,99582.20
2019-01-31T05:16:49.031Z,99589.11
2019-01-31T05:21:51.845Z,99592.36
2019-01-31T05:26:54.931Z,99593.14
2019-01-31T05:31:59.388Z,99591.47
2019-01-31T05:37:02.097Z,99596.29
2019-01-31T05:42:05.198Z,99598.85
2019-01-31T05:47:09.876Z,99606.15
2019-01-31T05:52:12.220Z,99599.36
2019-01-31T05:57:14.512Z,99608.82
2019-01-31T06:02:16.764Z,99613.70
2019-01-31T06:07:19.263Z,99615.81
2019-01-31T06:12:21.601Z,99620.94
2019-01-31T06:17:23.930Z,99620.05
2019-01-31T06:22:26.328Z,99618.32
2019-01-31T06:27:28.721Z,99625.86
2019-01-31T06:32:30.971Z,99634.83
2019-01-31T06:37:33.702Z,99631.07
2019-01-31T06:42:36.441Z,99638.61
2019-01-31T06:47:38.935Z,99647.83
2019-01-31T06:52:42.031Z,99655.90
2019-01-31T06:57:44.213Z,99659.98
2019-01-31T07:02:47.534Z,99655.50
2019-01-31T07:07:52.078Z,99663.73
2019-01-31T07:12:55.188Z,99665.65
2019-01-31T07:17:57.722Z,99660.47
2019-01-31T07:23:00.019Z,99663.92
2019-01-31T07:28:02.963Z,99665.78
2019-01-31T07:33:05.228Z,99666.66
2019-01-31T07:38:07.826Z,99667.14
2019-01-31T07:43:10.874Z,99670.39
2019-01-31T07:48:13.178Z,99673.25
2019-01-31T07:53:15.747Z,99677.43
2019-01-31T07:58:20.492Z,99672.80
2019-01-31T08:03:22.268Z,99680.30
2019-01-31T08:08:24.879Z,99684.47
2019-01-31T08:13:27.346Z,99683.48
2019-01-31T08:18:29.654Z,99689.51
2019-01-31T08:23:32.144Z,99687.22
2019-01-31T08:28:34.681Z,99683.16
2019-01-31T08:33:37.023Z,99691.45
2019-01-31T08:38:39.291Z,99695.86
2019-01-31T08:43:42.293Z,99702.34
2019-01-31T08:48:45.216Z,99706.24
2019-01-31T08:53:47.457Z,99705.17
2019-01-31T08:58:49.693Z,99712.28
2019-01-31T09:03:51.949Z,99718.05
2019-01-31T09:08:54.633Z,99718.14
2019-01-31T09:13:57.402Z,99725.33
2019-01-31T09:18:59.690Z,99733.06
2019-01-31T09:24:50.147Z,99732.10
2019-01-31T09:30:15.745Z,99731.17
2019-01-31T09:35:31.363Z,99734.31
2019-01-31T09:41:16.655Z,99734.58
2019-01-31T09:46:31.987Z,99740.52
2019-01-31T09:52:27.915Z,99738.84
2019-01-31T09:58:22.063Z,99738.70
2019-01-31T10:04:15.426Z,99732.93
2019-01-31T10:10:05.295Z,99732.24
2019-01-31T10:15:40.942Z,99732.59
2019-01-31T10:21:41.053Z,99733.92
2019-01-31T10:27:15.794Z,99721.14
2019-01-31T10:33:18.197Z,99722.03
2019-01-31T10:38:48.130Z,99718.59
2019-01-31T10:44:59.816Z,99712.77
2019-01-31T10:50:49.150Z,99701.16
2019-01-31T10:56:45.196Z,99695.63
2019-01-31T11:02:40.421Z,99697.59
2019-01-31T11:08:05.589Z,99695.61
2019-01-31T11:13:59.812Z,99691.67
2019-01-31T11:19:36.136Z,99684.49
2019-01-31T11:25:14.380Z,99683.78
2019-01-31T11:30:41.577Z,99681.61
2019-01-31T11:37:08.821Z,99681.80
2019-01-31T11:43:17.039Z,99685.68
2019-01-31T11:48:37.614Z,99684.55
2019-01-31T11:54:26.933Z,99673.55
2019-01-31T11:59:29.264Z,99678.32
2019-01-31T12:04:31.784Z,99688.92
2019-01-31T12:09:38.678Z,99677.62
2019-01-31T12:21:03.636Z,99677.37
2019-01-31T12:26:06.385Z,99678.05
2019-01-31T12:31:09.706Z,99669.04
2019-01-31T12:36:12.712Z,99666.66
2019-01-31T12:41:15.484Z,99665.45
2019-01-31T12:46:18.298Z,99667.77
2019-01-31T12:51:21.193Z,99664.02
2019-01-31T12:56:23.735Z,99655.84
2019-01-31T13:01:26.294Z,99656.84
2019-01-31T13:13:18.383Z,99663.17
2019-01-31T13:18:21.179Z,99661.49
2019-01-31T13:23:24.094Z,99663.74
2019-01-31T13:28:26.614Z,99664.35
2019-01-31T13:33:29.579Z,99659.41
2019-01-31T13:38:34.542Z,99661.84
2019-01-31T13:43:37.632Z,99659.14
2019-01-31T13:48:40.120Z,99663.56
2019-01-31T13:53:42.690Z,99661.16
2019-01-31T13:58:55.420Z,99670.74
2019-01-31T14:03:58.065Z,99670.53
2019-01-31T14:09:00.992Z,99669.28
2019-01-31T14:14:09.228Z,99673.02
2019-01-31T14:19:09.716Z,99676.90
2019-01-31T14:24:12.507Z,99679.84
2019-01-31T14:29:15.119Z,99686.86
2019-01-31T14:34:30.213Z,99686.23
2019-01-31T14:39:32.496Z,99688.45
2019-01-31T14:44:35.268Z,99683.75
2019-01-31T14:49:39.302Z,99692.86
2019-01-31T14:54:42.128Z,99700.33
2019-01-31T14:59:44.380Z,99688.34
2019-01-31T15:04:46.629Z,99689.08
2019-01-31T15:09:48.915Z,99690.74
2019-01-31T15:14:51.286Z,99693.41
2019-01-31T15:19:53.737Z,99693.42
2019-01-31T15:24:56.490Z,99697.03
2019-01-31T15:29:59.261Z,99695.38
2019-01-31T15:35:02.007Z,99691.33
2019-01-31T15:40:10.467Z,99695.93
2019-01-31T15:45:13.004Z,99696.37
2019-01-31T15:50:15.727Z,99704.65
2019-01-31T15:55:19.350Z,99701.23
2019-01-31T16:00:38.641Z,99702.45
2019-01-31T16:05:41.161Z,99704.77
2019-01-31T16:10:44.125Z,99708.06
2019-01-31T16:15:47.662Z,99709.70
2019-01-31T16:20:50.737Z,99701.59
2019-01-31T16:25:53.781Z,99703.69
2019-01-31T16:30:56.363Z,99701.64
2019-01-31T16:35:58.740Z,99704.67
2019-01-31T16:41:01.218Z,99694.96
2019-01-31T16:46:09.882Z,99692.45
2019-01-31T16:51:12.484Z,99701.64
2019-01-31T16:56:16.186Z,99695.61
2019-01-31T17:01:19.029Z,99702.87
2019-01-31T17:06:24.185Z,99701.83
2019-01-31T17:11:26.746Z,99705.90
2019-01-31T17:16:29.645Z,99700.45
2019-01-31T17:21:32.075Z,99700.95
2019-01-31T17:26:34.334Z,99699.60
2019-01-31T17:31:36.905Z,99706.66
2019-01-31T17:36:39.125Z,99708.20
2019-01-31T17:41:41.345Z,99697.70
2019-01-31T17:46:43.539Z,99703.23
2019-01-31T17:51:46.375Z,99701.07
2019-01-31T17:56:53.397Z,99707.67
2019-01-31T18:01:56.128Z,99707.02
2019-01-31T18:06:58.874Z,99706.42
2019-01-31T18:12:21.004Z,99706.66
2019-01-31T18:17:23.524Z,99701.75
2019-01-31T18:22:26.949Z,99709.33
2019-01-31T18:27:29.438Z,99703.66
2019-01-31T18:32:32.296Z,99712.15
2019-01-31T18:37:35.544Z,99696.59
2019-01-31T18:42:38.426Z,99703.19
2019-01-31T18:47:42.032Z,99695.99
2019-01-31T18:52:45.717Z,99704.09
2019-01-31T18:57:48.356Z,99695.54
2019-01-31T19:02:51.383Z,99693.59
2019-01-31T19:07:54.262Z,99691.09
2019-01-31T19:12:58.624Z,99690.34
2019-01-31T19:18:06.022Z,99698.88
2019-01-31T19:23:08.101Z,99687.86
2019-01-31T19:28:13.100Z,99691.48
2019-01-31T19:33:17.026Z,99694.28
2019-01-31T19:38:20.018Z,99690.50
2019-01-31T19:43:25.291Z,99688.92
2019-01-31T19:48:30.103Z,99687.42
2019-01-31T19:53:32.882Z,99683.80
2019-01-31T19:58:35.266Z,99681.52
2019-01-31T20:03:37.450Z,99677.05
2019-01-31T20:08:42.482Z,99675.61
2019-01-31T20:13:45.027Z,99670.69
2019-01-31T20:18:47.540Z,99672.74
2019-01-31T20:23:49.794Z,99661.19
2019-01-31T20:28:53.614Z,99664.94
2019-01-31T20:33:56.367Z,99667.20
2019-01-31T20:39:06.955Z,99662.97
2019-01-31T20:44:11.139Z,99672.17
2019-01-31T20:49:13.952Z,99674.51
2019-01-31T20:54:16.127Z,99670.27
2019-01-31T20:59:18.731Z,99673.44
2019-01-31T21:04:21.747Z,99675.77
2019-01-31T21:09:24.384Z,99668.23
2019-01-31T21:14:27.343Z,99669.25
2019-01-31T21:19:30.684Z,99666.00
2019-01-31T21:24:33.211Z,99662.30
2019-01-31T21:29:35.590Z,99661.62
2019-01-31T21:34:37.855Z,99662.28
2019-01-31T21:39:40.037Z,99663.09
2019-01-31T21:44:42.453Z,99670.45
2019-01-31T21:49:45.036Z,99669.71
2019-01-31T21:54:48.000Z,99666.91
2019-01-31T21:59:50.779Z,99659.57
2019-01-31T22:04:53.685Z,99663.13
2019-01-31T22:09:56.186Z,99665.36
2019-01-31T22:14:58.783Z,99663.48
2019-01-31T22:20:02.095Z,99658.86
2019-01-31T22:25:07.544Z,99653.94
2019-01-31T22:30:17.867Z,99654.38
2019-01-31T22:35:21.031Z,99646.39
2019-01-31T22:40:23.313Z,99636.46
2019-01-31T22:45:25.832Z,99632.38
2019-01-31T22:50:28.042Z,99634.25
2019-01-31T22:55:30.572Z,99626.27
2019-01-31T23:01:23.765Z,99629.39
2019-01-31T23:06:27.058Z,99633.13
2019-01-31T23:11:29.455Z,99630.47
2019-01-31T23:16:32.047Z,99620.73
2019-01-31T23:21:35.393Z,99621.70
2019-01-31T23:26:38.371Z,99603.50
2019-01-31T23:31:41.643Z,99609.66
2019-01-31T23:36:44.465Z,99607.23
2019-01-31T23:41:47.080Z,99607.83
2019-01-31T23:46:49.332Z,99603.30
2019-01-31T23:51:52.740Z,99602.13
2019-01-31T23:56:55.259Z,99596.70
